createdAt,value
2022-08-14T00:02:22.941Z,100.00
2022-08-14T00:04:52.164Z,100.00
2022-08-14T00:07:20.287Z,100.00
2022-08-14T00:10:02.483Z,100.00
2022-08-14T00:12:39.317Z,100.00
2022-08-14T00:15:16.855Z,100.00
2022-08-14T00:17:48.140Z,100.00
2022-08-14T00:20:30.806Z,100.00
2022-08-14T00:23:14.584Z,100.00
2022-08-14T00:26:06.274Z,100.00
2022-08-14T00:28:36.984Z,100.00
2022-08-14T00:31:08.002Z,100.00
2022-08-14T00:33:52.382Z,100.00
2022-08-14T00:36:39.243Z,100.00
2022-08-14T00:39:15.226Z,100.00
2022-08-14T00:41:47.449Z,100.00
2022-08-14T00:44:15.305Z,100.00
2022-08-14T00:46:58.799Z,100.00
2022-08-14T00:49:30.247Z,100.00
2022-08-14T00:52:00.572Z,100.00
2022-08-14T00:54:28.385Z,100.00
2022-08-14T00:56:56.219Z,100.00
2022-08-14T00:59:26.028Z,100.00
2022-08-14T01:01:59.834Z,100.00
2022-08-14T01:04:38.188Z,100.00
2022-08-14T01:07:20.877Z,100.00
2022-08-14T01:09:52.353Z,100.00
2022-08-14T01:12:26.348Z,100.00
2022-08-14T01:14:58.110Z,100.00
2022-08-14T01:17:51.944Z,100.00
2022-08-14T01:20:41.241Z,100.00
2022-08-14T01:23:16.203Z,100.00
2022-08-14T01:25:51.808Z,100.00
2022-08-14T01:28:46.980Z,100.00
2022-08-14T01:31:16.172Z,100.00
2022-08-14T01:35:15.831Z,100.00
2022-08-14T01:36:39.102Z,100.00
2022-08-14T01:39:18.011Z,100.00
2022-08-14T01:41:56.384Z,100.00
2022-08-14T01:44:32.907Z,100.00
2022-08-14T01:47:21.593Z,100.00
2022-08-14T01:49:59.549Z,100.00
2022-08-14T01:52:58.057Z,100.00
2022-08-14T01:55:32.236Z,100.00
2022-08-14T01:58:20.305Z,100.00
2022-08-14T02:00:54.986Z,100.00
2022-08-14T02:03:30.038Z,100.00
2022-08-14T02:06:04.242Z,100.00
2022-08-14T02:08:52.817Z,100.00
2022-08-14T02:11:25.259Z,100.00
2022-08-14T02:14:07.510Z,100.00
2022-08-14T02:16:42.155Z,100.00
2022-08-14T02:19:14.401Z,100.00
2022-08-14T02:21:48.925Z,100.00
2022-08-14T02:24:39.368Z,100.00
2022-08-14T02:28:24.095Z,100.00
2022-08-14T02:30:02.126Z,100.00
2022-08-14T02:32:36.466Z,100.00
2022-08-14T02:35:19.276Z,100.00
2022-08-14T02:37:50.227Z,100.00
2022-08-14T02:40:20.280Z,100.00
2022-08-14T02:42:54.534Z,100.00
2022-08-14T02:45:38.234Z,100.00
2022-08-14T02:49:03.008Z,100.00
2022-08-14T02:51:13.650Z,100.00
2022-08-14T02:53:44.343Z,100.00
2022-08-14T02:56:30.614Z,100.00
2022-08-14T02:59:08.140Z,100.00
2022-08-14T03:01:43.289Z,100.00
2022-08-14T03:04:15.882Z,100.00
2022-08-14T03:06:57.550Z,100.00
2022-08-14T03:10:25.543Z,100.00
2022-08-14T03:12:32.288Z,100.00
2022-08-14T03:15:07.250Z,100.00
2022-08-14T03:17:41.065Z,100.00
2022-08-14T03:20:23.890Z,100.00
2022-08-14T03:22:52.695Z,100.00
2022-08-14T03:25:22.545Z,100.00
2022-08-14T03:27:58.664Z,100.00
2022-08-14T03:30:39.238Z,100.00
2022-08-14T03:33:12.577Z,100.00
2022-08-14T03:36:00.181Z,100.00
2022-08-14T03:39:13.789Z,100.00
2022-08-14T03:41:23.110Z,100.00
2022-08-14T03:44:01.553Z,100.00
2022-08-14T03:46:53.109Z,100.00
2022-08-14T03:49:28.312Z,100.00
2022-08-14T03:51:58.320Z,100.00
2022-08-14T03:54:29.335Z,100.00
2022-08-14T03:57:02.875Z,100.00
2022-08-14T03:59:35.330Z,100.00
2022-08-14T04:02:04.128Z,100.00
2022-08-14T04:04:33.386Z,100.00
2022-08-14T04:07:01.787Z,100.00
2022-08-14T04:09:29.509Z,100.00
2022-08-14T04:12:00.021Z,100.00
2022-08-14T04:14:29.809Z,100.00
2022-08-14T04:16:58.049Z,100.00
2022-08-14T04:19:28.051Z,100.00
2022-08-14T04:22:03.579Z,100.00
2022-08-14T04:24:38.120Z,100.00
2022-08-14T04:27:09.749Z,100.00
2022-08-14T04:29:40.254Z,100.00
2022-08-14T04:32:58.631Z,100.00
2022-08-14T04:35:07.814Z,100.00
2022-08-14T04:37:57.447Z,100.00
2022-08-14T04:40:43.607Z,100.00
2022-08-14T04:43:38.608Z,100.00
2022-08-14T04:46:09.073Z,100.00
2022-08-14T04:48:43.602Z,100.00
2022-08-14T04:51:21.709Z,100.00
2022-08-14T04:53:51.318Z,100.00
2022-08-14T04:56:30.518Z,99.08
2022-08-14T04:59:10.694Z,99.55
2022-08-14T05:01:49.787Z,100.00
2022-08-14T05:04:21.242Z,99.82
2022-08-14T05:06:53.375Z,99.26
2022-08-14T05:09:28.802Z,98.64
2022-08-14T05:13:09.275Z,96.59
2022-08-14T05:14:53.574Z,95.35
2022-08-14T05:17:32.062Z,96.12
2022-08-14T05:21:56.028Z,92.76
2022-08-14T05:23:01.270Z,91.37
2022-08-14T05:25:31.291Z,90.93
2022-08-14T05:28:19.366Z,89.55
2022-08-14T05:30:50.833Z,87.67
2022-08-14T05:33:21.184Z,87.39
2022-08-14T05:35:48.981Z,87.09
2022-08-14T05:38:22.264Z,87.06
2022-08-14T05:40:59.786Z,86.92
2022-08-14T05:43:33.042Z,86.44
2022-08-14T05:46:15.451Z,86.52
2022-08-14T05:48:43.806Z,86.91
2022-08-14T05:51:13.514Z,86.00
2022-08-14T05:53:42.483Z,85.74
2022-08-14T05:56:10.216Z,86.67
2022-08-14T05:58:40.902Z,86.44
2022-08-14T06:01:10.301Z,86.63
2022-08-14T06:03:40.194Z,86.89
2022-08-14T06:06:08.252Z,85.84
2022-08-14T06:08:41.739Z,85.48
2022-08-14T06:11:10.714Z,85.15
2022-08-14T06:13:47.845Z,86.45
2022-08-14T06:16:18.853Z,85.19
2022-08-14T06:18:51.834Z,83.95
2022-08-14T06:21:24.431Z,84.62
2022-08-14T06:23:53.741Z,84.43
2022-08-14T06:26:22.773Z,81.63
2022-08-14T06:28:58.349Z,82.86
2022-08-14T06:31:26.053Z,81.26
2022-08-14T06:35:09.214Z,81.48
2022-08-14T06:36:41.448Z,80.31
2022-08-14T06:39:10.560Z,79.98
2022-08-14T06:41:58.522Z,80.19
2022-08-14T06:44:32.670Z,75.82
2022-08-14T06:47:05.404Z,72.24
2022-08-14T06:49:45.068Z,74.01
2022-08-14T06:52:21.949Z,75.25
2022-08-14T06:54:49.972Z,74.60
2022-08-14T06:57:18.120Z,73.85
2022-08-14T06:59:45.980Z,75.79
2022-08-14T07:02:32.179Z,76.21
2022-08-14T07:05:23.610Z,76.86
2022-08-14T07:07:51.974Z,77.17
2022-08-14T07:10:24.975Z,75.44
2022-08-14T07:13:04.049Z,75.78
2022-08-14T07:15:34.103Z,75.81
2022-08-14T07:18:03.745Z,74.29
2022-08-14T07:20:37.723Z,74.54
2022-08-14T07:23:11.094Z,73.95
2022-08-14T07:25:48.852Z,73.47
2022-08-14T07:28:23.882Z,73.21
2022-08-14T07:31:04.675Z,71.66
2022-08-14T07:33:43.559Z,71.03
2022-08-14T07:36:26.646Z,71.80
2022-08-14T07:38:57.988Z,69.08
2022-08-14T07:41:31.181Z,68.14
2022-08-14T07:44:29.096Z,70.01
2022-08-14T07:46:50.844Z,68.61
2022-08-14T07:49:20.281Z,68.39
2022-08-14T07:51:49.518Z,64.82
2022-08-14T07:54:23.385Z,66.56
2022-08-14T07:57:00.502Z,68.67
2022-08-14T07:59:41.420Z,69.10
2022-08-14T08:02:19.030Z,68.44
2022-08-14T08:04:54.534Z,67.95
2022-08-14T08:07:29.419Z,66.54
2022-08-14T08:10:01.175Z,64.72
2022-08-14T08:12:32.259Z,64.51
2022-08-14T08:15:05.963Z,67.38
2022-08-14T08:17:42.862Z,68.42
2022-08-14T08:20:27.367Z,66.05
2022-08-14T08:23:00.721Z,66.59
2022-08-14T08:25:39.802Z,65.70
2022-08-14T08:28:21.744Z,66.48
2022-08-14T08:30:56.354Z,67.07
2022-08-14T08:33:32.143Z,65.19
2022-08-14T08:36:12.967Z,60.63
2022-08-14T08:39:18.490Z,60.86
2022-08-14T08:41:50.475Z,63.76
2022-08-14T08:44:31.738Z,64.00
2022-08-14T08:47:06.496Z,62.00
2022-08-14T08:49:48.697Z,62.39
2022-08-14T08:52:31.742Z,61.98
2022-08-14T08:55:01.293Z,63.58
2022-08-14T08:57:37.722Z,62.43
2022-08-14T09:00:25.016Z,65.69
2022-08-14T09:03:00.086Z,65.00
2022-08-14T09:05:28.916Z,64.52
2022-08-14T09:08:30.812Z,65.48
2022-08-14T09:11:19.751Z,64.97
2022-08-14T09:13:51.635Z,65.16
2022-08-14T09:16:25.820Z,64.59
2022-08-14T09:18:54.814Z,64.07
2022-08-14T09:21:24.114Z,64.89
2022-08-14T09:24:29.193Z,63.65
2022-08-14T09:26:49.560Z,62.47
2022-08-14T09:29:20.017Z,62.25
2022-08-14T09:31:57.276Z,60.95
2022-08-14T09:34:58.785Z,61.12
2022-08-14T09:38:03.800Z,62.93
2022-08-14T09:40:41.076Z,66.85
2022-08-14T09:43:25.422Z,65.26
2022-08-14T09:45:58.388Z,63.94
2022-08-14T09:48:31.342Z,58.25
2022-08-14T09:54:19.164Z,61.93
2022-08-14T09:56:31.041Z,62.34
2022-08-14T09:59:15.192Z,63.71
2022-08-14T10:01:46.125Z,64.51
2022-08-14T10:04:35.000Z,66.20
2022-08-14T10:07:08.560Z,66.67
2022-08-14T10:09:59.837Z,67.28
2022-08-14T10:12:47.733Z,63.81
2022-08-14T10:15:21.486Z,61.01
2022-08-14T10:17:49.691Z,61.42
2022-08-14T10:20:40.246Z,61.33
2022-08-14T10:23:22.114Z,59.91
2022-08-14T10:25:53.506Z,59.34
2022-08-14T10:28:51.564Z,58.37
2022-08-14T10:31:25.307Z,56.64
2022-08-14T10:34:12.965Z,56.07
2022-08-14T10:36:49.893Z,56.64
2022-08-14T10:39:22.203Z,58.45
2022-08-14T10:41:59.818Z,57.30
2022-08-14T10:44:35.706Z,57.25
2022-08-14T10:47:41.637Z,58.06
2022-08-14T10:49:58.326Z,57.29
2022-08-14T10:52:33.933Z,58.50
2022-08-14T10:55:09.584Z,59.46
2022-08-14T10:57:52.558Z,56.94
2022-08-14T11:00:30.228Z,55.63
2022-08-14T11:03:19.730Z,54.88
2022-08-14T11:05:55.944Z,56.89
2022-08-14T11:08:34.140Z,56.65
2022-08-14T11:11:05.569Z,54.67
2022-08-14T11:13:34.571Z,53.27
2022-08-14T11:16:02.379Z,51.04
2022-08-14T11:18:35.975Z,51.57
2022-08-14T11:21:09.691Z,52.37
2022-08-14T11:23:43.686Z,52.36
2022-08-14T11:26:14.222Z,53.18
2022-08-14T11:28:48.809Z,53.44
2022-08-14T11:31:23.821Z,53.02
2022-08-14T11:33:55.477Z,53.95
2022-08-14T11:36:57.280Z,55.10
2022-08-14T11:39:34.482Z,54.83
2022-08-14T11:42:56.141Z,55.63
2022-08-14T11:45:11.096Z,54.02
2022-08-14T11:48:13.275Z,55.68
2022-08-14T11:50:37.927Z,53.61
2022-08-14T11:53:08.735Z,53.80
2022-08-14T11:55:39.688Z,51.60
2022-08-14T11:58:10.597Z,50.64
2022-08-14T12:00:57.295Z,50.72
2022-08-14T12:03:51.570Z,49.62
2022-08-14T12:06:28.562Z,50.49
2022-08-14T12:09:08.373Z,49.03
2022-08-14T12:11:43.169Z,50.03
2022-08-14T12:14:29.880Z,50.04
2022-08-14T12:17:12.166Z,50.28
2022-08-14T12:19:53.974Z,50.83
2022-08-14T12:22:37.648Z,51.19
2022-08-14T12:25:11.536Z,49.37
2022-08-14T12:27:41.655Z,49.40
2022-08-14T12:30:26.855Z,49.54
2022-08-14T12:33:03.948Z,51.26
2022-08-14T12:35:40.227Z,49.87
2022-08-14T12:38:08.771Z,50.95
2022-08-14T12:40:52.784Z,51.82
2022-08-14T12:43:23.765Z,50.82
2022-08-14T12:45:57.240Z,51.94
2022-08-14T12:48:31.937Z,52.57
2022-08-14T12:51:00.113Z,51.69
2022-08-14T12:53:38.554Z,53.03
2022-08-14T12:56:22.357Z,52.57
2022-08-14T12:58:56.759Z,53.69
2022-08-14T13:01:31.154Z,53.81
2022-08-14T13:04:17.491Z,54.43
2022-08-14T13:06:50.832Z,55.33
2022-08-14T13:09:20.611Z,54.71
2022-08-14T13:11:54.772Z,55.62
2022-08-14T13:14:30.415Z,54.01
2022-08-14T13:16:58.650Z,56.41
2022-08-14T13:19:28.313Z,54.52
2022-08-14T13:22:05.141Z,55.11
2022-08-14T13:24:35.039Z,56.40
2022-08-14T13:27:05.021Z,56.37
2022-08-14T13:29:43.929Z,55.91
2022-08-14T13:32:16.327Z,57.57
2022-08-14T13:34:46.127Z,57.75
2022-08-14T13:37:17.953Z,58.34
2022-08-14T13:39:56.661Z,58.53
2022-08-14T13:42:30.304Z,57.33
2022-08-14T13:45:02.469Z,57.04
2022-08-14T13:47:33.257Z,55.92
2022-08-14T13:50:04.794Z,54.92
2022-08-14T13:52:52.091Z,53.72
2022-08-14T13:55:23.457Z,51.98
2022-08-14T13:58:02.985Z,51.35
2022-08-14T14:00:35.737Z,49.73
2022-08-14T14:03:21.794Z,50.01
2022-08-14T14:05:55.009Z,50.50
2022-08-14T14:08:46.969Z,51.59
2022-08-14T14:11:14.200Z,51.44
2022-08-14T14:13:48.660Z,51.09
2022-08-14T14:16:26.299Z,51.57
2022-08-14T14:19:10.446Z,52.84
2022-08-14T14:21:40.334Z,53.38
2022-08-14T14:24:15.103Z,55.44
2022-08-14T14:26:50.140Z,55.01
2022-08-14T14:29:24.239Z,56.62
2022-08-14T14:31:54.428Z,55.41
2022-08-14T14:34:30.230Z,54.92
2022-08-14T14:37:04.629Z,54.20
2022-08-14T14:39:37.479Z,55.35
2022-08-14T14:42:09.246Z,54.48
2022-08-14T14:44:40.723Z,53.90
2022-08-14T14:47:10.506Z,54.36
2022-08-14T14:49:51.309Z,54.32
2022-08-14T14:52:27.683Z,54.93
2022-08-14T14:54:58.254Z,55.00
2022-08-14T14:57:34.581Z,55.14
2022-08-14T15:00:08.839Z,55.25
2022-08-14T15:02:43.690Z,54.98
2022-08-14T15:05:14.433Z,55.99
2022-08-14T15:07:43.244Z,55.94
2022-08-14T15:10:27.784Z,55.88
2022-08-14T15:13:00.352Z,55.78
2022-08-14T15:15:37.322Z,55.84
2022-08-14T15:18:35.782Z,56.07
2022-08-14T15:20:58.193Z,54.73
2022-08-14T15:23:44.440Z,54.05
2022-08-14T15:26:24.146Z,54.07
2022-08-14T15:29:06.508Z,55.39
2022-08-14T15:31:38.783Z,55.22
2022-08-14T15:34:44.143Z,54.61
2022-08-14T15:37:04.772Z,55.24
2022-08-14T15:39:35.703Z,55.07
2022-08-14T15:42:14.566Z,55.05
2022-08-14T15:44:58.608Z,53.20
2022-08-14T15:47:32.564Z,53.67
2022-08-14T15:50:04.922Z,51.95
2022-08-14T15:52:37.065Z,52.39
2022-08-14T15:55:08.767Z,52.83
2022-08-14T15:57:39.489Z,52.47
2022-08-14T16:00:49.935Z,54.01
2022-08-14T16:03:27.847Z,54.02
2022-08-14T16:06:10.971Z,52.33
2022-08-14T16:08:45.526Z,51.47
2022-08-14T16:11:14.977Z,51.76
2022-08-14T16:13:44.694Z,50.78
2022-08-14T16:16:34.990Z,51.23
2022-08-14T16:19:13.070Z,52.83
2022-08-14T16:21:58.373Z,52.40
2022-08-14T16:24:33.403Z,52.74
2022-08-14T16:27:05.282Z,53.20
2022-08-14T16:29:35.792Z,52.65
2022-08-14T16:32:33.388Z,52.41
2022-08-14T16:34:55.789Z,53.43
2022-08-14T16:37:30.378Z,52.42
2022-08-14T16:40:00.766Z,52.98
2022-08-14T16:42:39.044Z,52.32
2022-08-14T16:45:26.219Z,51.67
2022-08-14T16:47:55.944Z,51.68
2022-08-14T16:50:40.467Z,51.50
2022-08-14T16:53:12.476Z,51.45
2022-08-14T16:55:53.516Z,51.56
2022-08-14T16:58:30.246Z,51.25
2022-08-14T17:01:16.503Z,51.91
2022-08-14T17:04:14.936Z,51.66
2022-08-14T17:06:55.235Z,51.38
2022-08-14T17:09:48.984Z,52.68
2022-08-14T17:12:34.056Z,53.08
2022-08-14T17:15:15.010Z,54.18
2022-08-14T17:17:57.744Z,53.76
2022-08-14T17:20:53.396Z,54.81
2022-08-14T17:23:14.382Z,55.72
2022-08-14T17:25:49.451Z,56.77
2022-08-14T17:28:52.759Z,57.17
2022-08-14T17:31:09.800Z,57.87
2022-08-14T17:33:40.657Z,56.84
2022-08-14T17:36:21.488Z,58.12
2022-08-14T17:38:59.712Z,59.93
2022-08-14T17:41:32.878Z,61.50
2022-08-14T17:44:20.235Z,62.83
2022-08-14T17:46:59.622Z,62.22
2022-08-14T17:49:35.295Z,62.36
2022-08-14T17:52:17.535Z,61.58
2022-08-14T17:54:59.122Z,60.58
2022-08-14T17:57:45.383Z,60.91
2022-08-14T18:00:16.526Z,60.08
2022-08-14T18:02:51.148Z,60.27
2022-08-14T18:05:22.842Z,59.96
2022-08-14T18:08:31.385Z,60.10
2022-08-14T18:10:54.862Z,60.42
2022-08-14T18:13:50.403Z,61.63
2022-08-14T18:16:19.647Z,61.34
2022-08-14T18:18:48.811Z,61.97
2022-08-14T18:21:40.616Z,62.31
2022-08-14T18:24:20.285Z,63.65
2022-08-14T18:27:08.893Z,62.66
2022-08-14T18:29:54.857Z,62.60
2022-08-14T18:32:32.210Z,62.98
2022-08-14T18:35:11.309Z,62.41
2022-08-14T18:37:42.240Z,63.19
2022-08-14T18:40:34.538Z,62.39
2022-08-14T18:43:03.722Z,62.85
2022-08-14T18:45:41.455Z,62.47
2022-08-14T18:48:33.320Z,63.33
2022-08-14T18:51:45.496Z,62.49
2022-08-14T18:54:33.062Z,62.51
2022-08-14T18:57:05.344Z,63.54
2022-08-14T18:59:43.074Z,63.46
2022-08-14T19:02:30.435Z,64.54
2022-08-14T19:05:02.561Z,65.71
2022-08-14T19:07:33.264Z,65.45
2022-08-14T19:10:06.294Z,65.73
2022-08-14T19:12:56.666Z,65.46
2022-08-14T19:15:36.333Z,65.75
2022-08-14T19:18:25.898Z,65.51
2022-08-14T19:21:00.605Z,66.31
2022-08-14T19:23:42.867Z,66.53
2022-08-14T19:26:36.104Z,65.95
2022-08-14T19:29:37.772Z,67.46
2022-08-14T19:32:36.506Z,67.42
2022-08-14T19:35:48.819Z,67.63
2022-08-14T19:38:53.253Z,68.33
2022-08-14T19:41:35.562Z,68.65
2022-08-14T19:44:19.374Z,69.65
2022-08-14T19:47:01.872Z,70.01
2022-08-14T19:50:24.946Z,71.28
2022-08-14T19:52:35.314Z,70.69
2022-08-14T19:55:34.717Z,71.98
2022-08-14T19:58:03.584Z,71.67
2022-08-14T20:00:31.802Z,70.55
2022-08-14T20:03:10.926Z,70.47
2022-08-14T20:05:45.725Z,71.45
2022-08-14T20:09:05.914Z,71.99
2022-08-14T20:12:02.291Z,71.23
2022-08-14T20:14:12.456Z,70.95
2022-08-14T20:17:05.954Z,71.59
2022-08-14T20:19:37.717Z,71.34
2022-08-14T20:22:36.829Z,71.59
2022-08-14T20:25:16.535Z,71.25
2022-08-14T20:27:47.665Z,71.78
2022-08-14T20:30:33.792Z,71.32
2022-08-14T20:33:10.857Z,71.48
2022-08-14T20:35:38.983Z,71.59
2022-08-14T20:38:29.397Z,72.96
2022-08-14T20:41:09.651Z,73.88
2022-08-14T20:43:59.703Z,73.25
2022-08-14T20:46:31.715Z,74.66
2022-08-14T20:49:05.395Z,74.77
2022-08-14T20:51:47.750Z,73.71
2022-08-14T20:54:34.184Z,74.13
2022-08-14T20:57:10.236Z,73.60
2022-08-14T20:59:53.570Z,74.31
2022-08-14T21:02:50.079Z,74.89
2022-08-14T21:05:34.038Z,73.67
2022-08-14T21:08:10.019Z,74.05
2022-08-14T21:10:56.685Z,73.28
2022-08-14T21:14:08.731Z,73.46
2022-08-14T21:16:33.420Z,74.62
2022-08-14T21:19:04.003Z,75.17
2022-08-14T21:21:41.434Z,74.53
2022-08-14T21:24:39.915Z,74.26
2022-08-14T21:27:12.488Z,74.86
2022-08-14T21:29:53.786Z,74.63
2022-08-14T21:32:50.596Z,75.36
2022-08-14T21:35:24.515Z,74.85
2022-08-14T21:37:53.813Z,74.19
2022-08-14T21:40:41.953Z,73.89
2022-08-14T21:43:20.081Z,73.96
2022-08-14T21:45:53.506Z,73.70
2022-08-14T21:48:26.239Z,73.92
2022-08-14T21:51:01.248Z,72.66
2022-08-14T21:53:58.669Z,72.43
2022-08-14T21:56:39.570Z,72.32
2022-08-14T21:59:17.885Z,72.92
2022-08-14T22:02:00.195Z,72.72
2022-08-14T22:04:40.011Z,72.97
2022-08-14T22:07:16.761Z,73.18
2022-08-14T22:09:54.967Z,73.11
2022-08-14T22:12:45.357Z,72.11
2022-08-14T22:15:17.995Z,72.06
2022-08-14T22:17:52.303Z,72.37
2022-08-14T22:20:25.662Z,71.56
2022-08-14T22:22:56.176Z,71.09
2022-08-14T22:25:33.127Z,71.28
2022-08-14T22:28:06.231Z,71.30
2022-08-14T22:30:38.071Z,71.26
2022-08-14T22:33:10.016Z,70.81
2022-08-14T22:35:41.064Z,69.27
2022-08-14T22:38:37.938Z,69.78
2022-08-14T22:41:27.451Z,69.83
2022-08-14T22:43:53.340Z,68.72
2022-08-14T22:46:22.134Z,69.18
2022-08-14T22:48:51.387Z,69.43
2022-08-14T22:51:22.286Z,68.90
2022-08-14T22:53:53.518Z,69.09
2022-08-14T22:56:29.149Z,68.61
2022-08-14T22:58:59.360Z,70.12
2022-08-14T23:01:57.250Z,69.60
2022-08-14T23:04:35.948Z,69.56
2022-08-14T23:07:22.812Z,69.46
2022-08-14T23:09:57.634Z,70.05
2022-08-14T23:12:47.700Z,69.09
2022-08-14T23:15:24.827Z,67.28
2022-08-14T23:17:58.501Z,67.53
2022-08-14T23:20:29.223Z,67.64
2022-08-14T23:22:58.290Z,68.44
2022-08-14T23:25:57.462Z,67.30
2022-08-14T23:28:33.400Z,68.19
2022-08-14T23:31:05.638Z,69.04
2022-08-14T23:33:34.967Z,68.58
2022-08-14T23:36:32.222Z,68.59
2022-08-14T23:38:54.236Z,69.25
2022-08-14T23:41:22.174Z,69.09
2022-08-14T23:43:54.654Z,70.97
2022-08-14T23:46:24.024Z,68.64
2022-08-14T23:49:04.988Z,69.53
2022-08-14T23:51:36.294Z,70.51
2022-08-14T23:54:06.258Z,69.81
2022-08-14T23:57:02.730Z,70.21
2022-08-14T23:59:32.231Z,70.86
